sensor_id;sensor_type;location;lat;lon;timestamp;pressure;altitude;pressure_sealevel;temperature
53667;BMP280;39568;51.026;5.468;2023-04-30T00:00:48;101400.47;;;8.75
53667;BMP280;39568;51.026;5.468;2023-04-30T00:03:16;101394.50;;;8.65
53667;BMP280;39568;51.026;5.468;2023-04-30T00:05:43;101400.13;;;8.58
53667;BMP280;39568;51.026;5.468;2023-04-30T00:08:10;101388.56;;;8.47
53667;BMP280;39568;51.026;5.468;2023-04-30T00:10:36;101385.91;;;8.47
53667;BMP280;39568;51.026;5.468;2023-04-30T00:13:04;101396.59;;;8.37
53667;BMP280;39568;51.026;5.468;2023-04-30T00:15:31;101392.78;;;8.29
53667;BMP280;39568;51.026;5.468;2023-04-30T00:17:58;101395.75;;;8.22
53667;BMP280;39568;51.026;5.468;2023-04-30T00:20:24;101401.91;;;8.19
53667;BMP280;39568;51.026;5.468;2023-04-30T00:22:51;101395.47;;;8.11
53667;BMP280;39568;51.026;5.468;2023-04-30T00:25:18;101400.84;;;8.02
53667;BMP280;39568;51.026;5.468;2023-04-30T00:27:47;101396.13;;;7.97
53667;BMP280;39568;51.026;5.468;2023-04-30T00:30:17;101400.53;;;8.00
53667;BMP280;39568;51.026;5.468;2023-04-30T00:32:45;101394.38;;;7.94
53667;BMP280;39568;51.026;5.468;2023-04-30T00:35:12;101400.25;;;7.89
53667;BMP280;39568;51.026;5.468;2023-04-30T00:37:39;101400.25;;;7.89
53667;BMP280;39568;51.026;5.468;2023-04-30T00:40:07;101399.09;;;7.90
53667;BMP280;39568;51.026;5.468;2023-04-30T00:42:34;101403.81;;;7.86
53667;BMP280;39568;51.026;5.468;2023-04-30T00:45:01;101398.53;;;7.77
53667;BMP280;39568;51.026;5.468;2023-04-30T00:47:29;101395.75;;;7.71
53667;BMP280;39568;51.026;5.468;2023-04-30T00:49:56;101395.28;;;7.64
53667;BMP280;39568;51.026;5.468;2023-04-30T00:52:23;101392.22;;;7.65
53667;BMP280;39568;51.026;5.468;2023-04-30T00:54:51;101392.66;;;7.64
53667;BMP280;39568;51.026;5.468;2023-04-30T00:57:21;101392.66;;;7.64
53667;BMP280;39568;51.026;5.468;2023-04-30T00:59:48;101389.13;;;7.67
53667;BMP280;39568;51.026;5.468;2023-04-30T01:02:18;101392.66;;;7.64
53667;BMP280;39568;51.026;5.468;2023-04-30T01:04:46;101384.88;;;7.60
53667;BMP280;39568;51.026;5.468;2023-04-30T01:07:17;101391.38;;;7.59
53667;BMP280;39568;51.026;5.468;2023-04-30T01:09:44;101383.41;;;7.59
53667;BMP280;39568;51.026;5.468;2023-04-30T01:12:14;101385.03;;;7.57
53667;BMP280;39568;51.026;5.468;2023-04-30T01:14:54;101378.56;;;7.49
53667;BMP280;39568;51.026;5.468;2023-04-30T01:17:27;101379.44;;;7.46
53667;BMP280;39568;51.026;5.468;2023-04-30T01:19:57;101372.69;;;7.45
53667;BMP280;39568;51.026;5.468;2023-04-30T01:22:35;101374.00;;;7.49
53667;BMP280;39568;51.026;5.468;2023-04-30T01:25:41;101376.53;;;7.44
53667;BMP280;39568;51.026;5.468;2023-04-30T01:28:14;101378.00;;;7.36
53667;BMP280;39568;51.026;5.468;2023-04-30T01:30:42;101376.22;;;7.23
53667;BMP280;39568;51.026;5.468;2023-04-30T01:33:13;101375.94;;;7.21
53667;BMP280;39568;51.026;5.468;2023-04-30T01:36:19;101376.38;;;7.20
53667;BMP280;39568;51.026;5.468;2023-04-30T01:39:05;101374.91;;;7.19
53667;BMP280;39568;51.026;5.468;2023-04-30T01:41:49;101383.28;;;7.08
53667;BMP280;39568;51.026;5.468;2023-04-30T01:44:28;101385.19;;;6.99
53667;BMP280;39568;51.026;5.468;2023-04-30T01:47:05;101390.59;;;6.86
53667;BMP280;39568;51.026;5.468;2023-04-30T01:49:41;101381.91;;;6.86
53667;BMP280;39568;51.026;5.468;2023-04-30T01:52:17;101383.09;;;6.85
53667;BMP280;39568;51.026;5.468;2023-04-30T01:54:50;101382.34;;;6.75
53667;BMP280;39568;51.026;5.468;2023-04-30T01:57:23;101379.09;;;6.62
53667;BMP280;39568;51.026;5.468;2023-04-30T01:59:55;101387.16;;;6.67
53667;BMP280;39568;51.026;5.468;2023-04-30T02:02:27;101383.66;;;6.61
53667;BMP280;39568;51.026;5.468;2023-04-30T02:04:54;101388.81;;;6.65
53667;BMP280;39568;51.026;5.468;2023-04-30T02:07:33;101386.72;;;6.60
53667;BMP280;39568;51.026;5.468;2023-04-30T02:10:02;101397.16;;;6.63
53667;BMP280;39568;51.026;5.468;2023-04-30T02:12:30;101391.72;;;6.58
53667;BMP280;39568;51.026;5.468;2023-04-30T02:14:58;101395.53;;;6.57
53667;BMP280;39568;51.026;5.468;2023-04-30T02:17:28;101389.66;;;6.53
53667;BMP280;39568;51.026;5.468;2023-04-30T02:19:55;101396.34;;;6.45
53667;BMP280;39568;51.026;5.468;2023-04-30T02:22:22;101391.34;;;6.38
53667;BMP280;39568;51.026;5.468;2023-04-30T02:24:52;101398.97;;;6.27
53667;BMP280;39568;51.026;5.468;2023-04-30T02:27:20;101391.75;;;6.27
53667;BMP280;39568;51.026;5.468;2023-04-30T02:29:47;101390.41;;;6.23
53667;BMP280;39568;51.026;5.468;2023-04-30T02:32:15;101394.50;;;6.24
53667;BMP280;39568;51.026;5.468;2023-04-30T02:34:45;101383.78;;;6.18
53667;BMP280;39568;51.026;5.468;2023-04-30T02:37:12;101396.81;;;6.12
53667;BMP280;39568;51.026;5.468;2023-04-30T02:39:38;101390.88;;;5.99
53667;BMP280;39568;51.026;5.468;2023-04-30T02:42:07;101376.69;;;5.84
53667;BMP280;39568;51.026;5.468;2023-04-30T02:44:38;101378.41;;;5.78
53667;BMP280;39568;51.026;5.468;2023-04-30T02:47:07;101377.78;;;5.74
53667;BMP280;39568;51.026;5.468;2023-04-30T02:49:39;101370.72;;;5.71
53667;BMP280;39568;51.026;5.468;2023-04-30T02:52:06;101368.34;;;5.64
53667;BMP280;39568;51.026;5.468;2023-04-30T02:54:36;101369.41;;;5.67
53667;BMP280;39568;51.026;5.468;2023-04-30T02:57:07;101375.03;;;5.56
53667;BMP280;39568;51.026;5.468;2023-04-30T02:59:36;101371.66;;;5.55
53667;BMP280;39568;51.026;5.468;2023-04-30T03:02:03;101359.00;;;5.50
53667;BMP280;39568;51.026;5.468;2023-04-30T03:04:30;101364.91;;;5.54
53667;BMP280;39568;51.026;5.468;2023-04-30T03:06:59;101364.47;;;5.56
53667;BMP280;39568;51.026;5.468;2023-04-30T03:09:30;101358.00;;;5.57
53667;BMP280;39568;51.026;5.468;2023-04-30T03:11:56;101361.94;;;5.74
53667;BMP280;39568;51.026;5.468;2023-04-30T03:14:23;101360.34;;;5.77
53667;BMP280;39568;51.026;5.468;2023-04-30T03:16:50;101366.69;;;5.79
53667;BMP280;39568;51.026;5.468;2023-04-30T03:19:18;101366.13;;;5.63
53667;BMP280;39568;51.026;5.468;2023-04-30T03:21:49;101364.09;;;5.45
53667;BMP280;39568;51.026;5.468;2023-04-30T03:24:17;101365.25;;;5.44
53667;BMP280;39568;51.026;5.468;2023-04-30T03:26:47;101372.41;;;5.56
53667;BMP280;39568;51.026;5.468;2023-04-30T03:29:14;101365.28;;;5.66
53667;BMP280;39568;51.026;5.468;2023-04-30T03:31:43;101371.28;;;5.66
53667;BMP280;39568;51.026;5.468;2023-04-30T03:34:10;101369.69;;;5.47
53667;BMP280;39568;51.026;5.468;2023-04-30T03:36:36;101374.34;;;5.43
53667;BMP280;39568;51.026;5.468;2023-04-30T03:39:03;101376.53;;;5.23
53667;BMP280;39568;51.026;5.468;2023-04-30T03:41:31;101374.22;;;5.12
53667;BMP280;39568;51.026;5.468;2023-04-30T03:43:58;101375.91;;;5.19
53667;BMP280;39568;51.026;5.468;2023-04-30T03:46:25;101377.91;;;5.15
53667;BMP280;39568;51.026;5.468;2023-04-30T03:48:52;101378.25;;;5.17
53667;BMP280;39568;51.026;5.468;2023-04-30T03:51:20;101370.84;;;5.12
53667;BMP280;39568;51.026;5.468;2023-04-30T03:53:47;101373.41;;;5.02
53667;BMP280;39568;51.026;5.468;2023-04-30T03:56:13;101373.00;;;4.91
53667;BMP280;39568;51.026;5.468;2023-04-30T03:58:42;101382.19;;;4.87
53667;BMP280;39568;51.026;5.468;2023-04-30T04:01:10;101385.56;;;4.87
53667;BMP280;39568;51.026;5.468;2023-04-30T04:03:39;101386.41;;;4.84
53667;BMP280;39568;51.026;5.468;2023-04-30T04:06:05;101378.91;;;4.83
53667;BMP280;39568;51.026;5.468;2023-04-30T04:08:32;101378.28;;;4.79
53667;BMP280;39568;51.026;5.468;2023-04-30T04:11:01;101384.00;;;4.77
53667;BMP280;39568;51.026;5.468;2023-04-30T04:13:30;101391.19;;;4.89
53667;BMP280;39568;51.026;5.468;2023-04-30T04:15:59;101378.91;;;4.95
53667;BMP280;39568;51.026;5.468;2023-04-30T04:18:32;101383.44;;;4.95
53667;BMP280;39568;51.026;5.468;2023-04-30T04:21:00;101378.06;;;4.98
53667;BMP280;39568;51.026;5.468;2023-04-30T04:23:28;101387.03;;;5.01
53667;BMP280;39568;51.026;5.468;2023-04-30T04:25:55;101384.28;;;5.04
53667;BMP280;39568;51.026;5.468;2023-04-30T04:28:25;101383.41;;;5.07
53667;BMP280;39568;51.026;5.468;2023-04-30T04:30:52;101387.81;;;5.11
53667;BMP280;39568;51.026;5.468;2023-04-30T04:33:21;101383.91;;;5.28
53667;BMP280;39568;51.026;5.468;2023-04-30T04:35:47;101386.00;;;5.33
53667;BMP280;39568;51.026;5.468;2023-04-30T04:38:14;101386.16;;;5.51
53667;BMP280;39568;51.026;5.468;2023-04-30T04:40:50;101385.19;;;5.45
53667;BMP280;39568;51.026;5.468;2023-04-30T04:43:16;101391.09;;;5.49
53667;BMP280;39568;51.026;5.468;2023-04-30T04:45:43;101389.19;;;5.49
53667;BMP280;39568;51.026;5.468;2023-04-30T04:48:11;101392.78;;;5.55
53667;BMP280;39568;51.026;5.468;2023-04-30T04:50:47;101398.78;;;5.56
53667;BMP280;39568;51.026;5.468;2023-04-30T04:53:14;101392.84;;;5.65
53667;BMP280;39568;51.026;5.468;2023-04-30T04:55:48;101389.16;;;5.62
53667;BMP280;39568;51.026;5.468;2023-04-30T04:58:21;101402.81;;;5.82
53667;BMP280;39568;51.026;5.468;2023-04-30T05:00:48;101404.03;;;5.90
53667;BMP280;39568;51.026;5.468;2023-04-30T05:03:16;101405.50;;;5.91
53667;BMP280;39568;51.026;5.468;2023-04-30T05:05:47;101405.69;;;5.97
53667;BMP280;39568;51.026;5.468;2023-04-30T05:08:14;101411.13;;;6.02
53667;BMP280;39568;51.026;5.468;2023-04-30T05:10:43;101403.56;;;6.13
53667;BMP280;39568;51.026;5.468;2023-04-30T05:13:09;101407.84;;;6.20
53667;BMP280;39568;51.026;5.468;2023-04-30T05:15:39;101403.50;;;6.35
53667;BMP280;39568;51.026;5.468;2023-04-30T05:18:07;101400.63;;;6.42
53667;BMP280;39568;51.026;5.468;2023-04-30T05:20:39;101396.97;;;6.49
53667;BMP280;39568;51.026;5.468;2023-04-30T05:23:07;101404.66;;;6.65
53667;BMP280;39568;51.026;5.468;2023-04-30T05:25:37;101391.28;;;6.68
53667;BMP280;39568;51.026;5.468;2023-04-30T05:28:13;101405.44;;;6.84
53667;BMP280;39568;51.026;5.468;2023-04-30T05:30:42;101404.75;;;6.92
53667;BMP280;39568;51.026;5.468;2023-04-30T05:33:12;101408.84;;;6.93
53667;BMP280;39568;51.026;5.468;2023-04-30T05:35:39;101409.91;;;7.05
53667;BMP280;39568;51.026;5.468;2023-04-30T05:38:10;101416.50;;;7.09
53667;BMP280;39568;51.026;5.468;2023-04-30T05:40:37;101411.63;;;7.17
53667;BMP280;39568;51.026;5.468;2023-04-30T05:43:05;101421.09;;;7.27
53667;BMP280;39568;51.026;5.468;2023-04-30T05:45:32;101430.78;;;7.30
53667;BMP280;39568;51.026;5.468;2023-04-30T05:47:59;101421.81;;;7.37
53667;BMP280;39568;51.026;5.468;2023-04-30T05:50:27;101422.00;;;7.51
53667;BMP280;39568;51.026;5.468;2023-04-30T05:52:53;101427.81;;;7.64
53667;BMP280;39568;51.026;5.468;2023-04-30T05:55:21;101418.25;;;7.76
53667;BMP280;39568;51.026;5.468;2023-04-30T05:57:48;101416.47;;;7.91
53667;BMP280;39568;51.026;5.468;2023-04-30T06:00:15;101418.50;;;8.05
53667;BMP280;39568;51.026;5.468;2023-04-30T06:02:44;101434.03;;;8.21
53667;BMP280;39568;51.026;5.468;2023-04-30T06:05:12;101428.41;;;8.28
53667;BMP280;39568;51.026;5.468;2023-04-30T06:07:39;101426.00;;;8.39
53667;BMP280;39568;51.026;5.468;2023-04-30T06:10:07;101425.38;;;8.54
53667;BMP280;39568;51.026;5.468;2023-04-30T06:12:40;101433.56;;;8.65
53667;BMP280;39568;51.026;5.468;2023-04-30T06:15:07;101435.03;;;8.66
53667;BMP280;39568;51.026;5.468;2023-04-30T06:17:34;101430.63;;;8.86
53667;BMP280;39568;51.026;5.468;2023-04-30T06:20:01;101440.47;;;8.95
53667;BMP280;39568;51.026;5.468;2023-04-30T06:22:31;101442.13;;;9.07
53667;BMP280;39568;51.026;5.468;2023-04-30T06:24:57;101436.75;;;9.16
53667;BMP280;39568;51.026;5.468;2023-04-30T06:27:24;101432.28;;;9.37
53667;BMP280;39568;51.026;5.468;2023-04-30T06:29:56;101429.78;;;9.42
53667;BMP280;39568;51.026;5.468;2023-04-30T06:32:25;101430.22;;;9.55
53667;BMP280;39568;51.026;5.468;2023-04-30T06:34:51;101433.97;;;9.64
53667;BMP280;39568;51.026;5.468;2023-04-30T06:37:18;101428.69;;;9.78
53667;BMP280;39568;51.026;5.468;2023-04-30T06:39:45;101429.84;;;9.92
53667;BMP280;39568;51.026;5.468;2023-04-30T06:42:12;101429.38;;;10.08
53667;BMP280;39568;51.026;5.468;2023-04-30T06:44:39;101430.72;;;10.18
53667;BMP280;39568;51.026;5.468;2023-04-30T06:47:07;101422.75;;;10.38
53667;BMP280;39568;51.026;5.468;2023-04-30T06:49:33;101426.50;;;10.46
53667;BMP280;39568;51.026;5.468;2023-04-30T06:52:00;101425.66;;;10.55
53667;BMP280;39568;51.026;5.468;2023-04-30T06:54:27;101431.41;;;10.68
53667;BMP280;39568;51.026;5.468;2023-04-30T06:56:54;101426.66;;;10.77
53667;BMP280;39568;51.026;5.468;2023-04-30T06:59:21;101432.31;;;10.85
53667;BMP280;39568;51.026;5.468;2023-04-30T07:01:47;101426.38;;;10.96
53667;BMP280;39568;51.026;5.468;2023-04-30T07:04:19;101420.16;;;11.04
53667;BMP280;39568;51.026;5.468;2023-04-30T07:06:48;101423.94;;;11.18
53667;BMP280;39568;51.026;5.468;2023-04-30T07:09:15;101430.38;;;11.31
53667;BMP280;39568;51.026;5.468;2023-04-30T07:11:42;101423.22;;;11.43
53667;BMP280;39568;51.026;5.468;2023-04-30T07:14:09;101422.06;;;11.55
53667;BMP280;39568;51.026;5.468;2023-04-30T07:16:36;101430.88;;;11.61
53667;BMP280;39568;51.026;5.468;2023-04-30T07:19:05;101426.66;;;11.80
53667;BMP280;39568;51.026;5.468;2023-04-30T07:21:37;101428.94;;;11.93
53667;BMP280;39568;51.026;5.468;2023-04-30T07:24:04;101426.56;;;12.00
53667;BMP280;39568;51.026;5.468;2023-04-30T07:26:30;101424.00;;;12.17
53667;BMP280;39568;51.026;5.468;2023-04-30T07:28:57;101427.69;;;12.31
53667;BMP280;39568;51.026;5.468;2023-04-30T07:31:27;101424.88;;;12.51
53667;BMP280;39568;51.026;5.468;2023-04-30T07:33:56;101425.16;;;12.58
53667;BMP280;39568;51.026;5.468;2023-04-30T07:36:23;101425.69;;;12.79
53667;BMP280;39568;51.026;5.468;2023-04-30T07:38:53;101424.75;;;12.93
53667;BMP280;39568;51.026;5.468;2023-04-30T07:41:20;101428.94;;;13.11
53667;BMP280;39568;51.026;5.468;2023-04-30T07:43:47;101427.44;;;13.21
53667;BMP280;39568;51.026;5.468;2023-04-30T07:46:13;101429.16;;;13.40
53667;BMP280;39568;51.026;5.468;2023-04-30T07:48:40;101423.34;;;13.53
53667;BMP280;39568;51.026;5.468;2023-04-30T07:51:10;101424.53;;;13.74
53667;BMP280;39568;51.026;5.468;2023-04-30T07:53:43;101426.44;;;13.90
53667;BMP280;39568;51.026;5.468;2023-04-30T07:56:11;101425.63;;;14.23
53667;BMP280;39568;51.026;5.468;2023-04-30T07:58:43;101425.56;;;14.40
53667;BMP280;39568;51.026;5.468;2023-04-30T08:01:10;101424.00;;;14.55
53667;BMP280;39568;51.026;5.468;2023-04-30T08:03:36;101421.25;;;14.72
53667;BMP280;39568;51.026;5.468;2023-04-30T08:06:04;101428.16;;;14.92
53667;BMP280;39568;51.026;5.468;2023-04-30T08:08:34;101421.94;;;15.13
53667;BMP280;39568;51.026;5.468;2023-04-30T08:11:00;101420.09;;;15.27
53667;BMP280;39568;51.026;5.468;2023-04-30T08:13:28;101420.88;;;15.52
53667;BMP280;39568;51.026;5.468;2023-04-30T08:15:56;101428.19;;;15.75
53667;BMP280;39568;51.026;5.468;2023-04-30T08:18:25;101419.59;;;16.01
53667;BMP280;39568;51.026;5.468;2023-04-30T08:20:51;101417.00;;;16.14
53667;BMP280;39568;51.026;5.468;2023-04-30T08:23:19;101426.72;;;16.17
53667;BMP280;39568;51.026;5.468;2023-04-30T08:25:46;101426.09;;;16.30
53667;BMP280;39568;51.026;5.468;2023-04-30T08:28:12;101417.88;;;16.41
53667;BMP280;39568;51.026;5.468;2023-04-30T08:30:40;101417.94;;;16.54
53667;BMP280;39568;51.026;5.468;2023-04-30T08:33:07;101416.97;;;16.70
53667;BMP280;39568;51.026;5.468;2023-04-30T08:35:33;101420.34;;;16.89
53667;BMP280;39568;51.026;5.468;2023-04-30T08:38:00;101417.66;;;16.89
53667;BMP280;39568;51.026;5.468;2023-04-30T08:40:27;101413.88;;;16.98
53667;BMP280;39568;51.026;5.468;2023-04-30T08:43:01;101413.88;;;17.11
53667;BMP280;39568;51.026;5.468;2023-04-30T08:45:30;101406.44;;;17.30
53667;BMP280;39568;51.026;5.468;2023-04-30T08:48:00;101413.09;;;17.42
53667;BMP280;39568;51.026;5.468;2023-04-30T08:50:28;101411.34;;;17.44
53667;BMP280;39568;51.026;5.468;2023-04-30T08:52:57;101416.00;;;17.70
53667;BMP280;39568;51.026;5.468;2023-04-30T08:55:25;101411.94;;;17.90
53667;BMP280;39568;51.026;5.468;2023-04-30T08:57:56;101415.00;;;18.07
53667;BMP280;39568;51.026;5.468;2023-04-30T09:00:22;101411.41;;;18.38
53667;BMP280;39568;51.026;5.468;2023-04-30T09:02:51;101406.19;;;18.81
53667;BMP280;39568;51.026;5.468;2023-04-30T09:05:19;101415.44;;;19.21
53667;BMP280;39568;51.026;5.468;2023-04-30T09:07:45;101413.72;;;19.67
53667;BMP280;39568;51.026;5.468;2023-04-30T09:10:18;101413.97;;;19.92
53667;BMP280;39568;51.026;5.468;2023-04-30T09:12:57;101420.38;;;20.47
53667;BMP280;39568;51.026;5.468;2023-04-30T09:15:25;101418.28;;;21.31
53667;BMP280;39568;51.026;5.468;2023-04-30T09:18:15;101417.91;;;22.06
53667;BMP280;39568;51.026;5.468;2023-04-30T09:21:02;101415.09;;;23.31
53667;BMP280;39568;51.026;5.468;2023-04-30T09:23:33;101421.50;;;24.16
53667;BMP280;39568;51.026;5.468;2023-04-30T09:26:02;101407.97;;;24.35
53667;BMP280;39568;51.026;5.468;2023-04-30T09:28:29;101410.28;;;24.76
53667;BMP280;39568;51.026;5.468;2023-04-30T09:30:59;101410.53;;;24.42
53667;BMP280;39568;51.026;5.468;2023-04-30T09:33:31;101413.38;;;24.44
53667;BMP280;39568;51.026;5.468;2023-04-30T09:36:14;101414.06;;;25.40
53667;BMP280;39568;51.026;5.468;2023-04-30T09:38:44;101413.41;;;25.61
53667;BMP280;39568;51.026;5.468;2023-04-30T09:41:21;101418.53;;;26.60
53667;BMP280;39568;51.026;5.468;2023-04-30T09:43:49;101408.47;;;25.69
53667;BMP280;39568;51.026;5.468;2023-04-30T09:46:29;101424.72;;;26.61
53667;BMP280;39568;51.026;5.468;2023-04-30T09:49:01;101416.22;;;27.68
53667;BMP280;39568;51.026;5.468;2023-04-30T09:51:34;101421.78;;;28.30
53667;BMP280;39568;51.026;5.468;2023-04-30T09:54:02;101409.88;;;29.14
53667;BMP280;39568;51.026;5.468;2023-04-30T09:56:34;101413.59;;;28.55
53667;BMP280;39568;51.026;5.468;2023-04-30T09:59:07;101394.34;;;29.19
53667;BMP280;39568;51.026;5.468;2023-04-30T10:01:35;101415.34;;;28.37
53667;BMP280;39568;51.026;5.468;2023-04-30T10:04:03;101410.59;;;29.01
53667;BMP280;39568;51.026;5.468;2023-04-30T10:06:35;101400.91;;;29.00
53667;BMP280;39568;51.026;5.468;2023-04-30T10:09:05;101406.41;;;28.87
53667;BMP280;39568;51.026;5.468;2023-04-30T10:11:36;101406.16;;;29.21
53667;BMP280;39568;51.026;5.468;2023-04-30T10:14:10;101395.47;;;29.55
53667;BMP280;39568;51.026;5.468;2023-04-30T10:16:42;101389.66;;;29.62
53667;BMP280;39568;51.026;5.468;2023-04-30T10:19:13;101384.63;;;30.28
53667;BMP280;39568;51.026;5.468;2023-04-30T10:21:41;101387.31;;;31.04
53667;BMP280;39568;51.026;5.468;2023-04-30T10:24:12;101390.41;;;31.45
53667;BMP280;39568;51.026;5.468;2023-04-30T10:26:40;101377.44;;;32.00
53667;BMP280;39568;51.026;5.468;2023-04-30T10:29:08;101377.81;;;32.28
53667;BMP280;39568;51.026;5.468;2023-04-30T10:31:36;101378.88;;;33.17
53667;BMP280;39568;51.026;5.468;2023-04-30T10:34:08;101386.84;;;32.87
53667;BMP280;39568;51.026;5.468;2023-04-30T10:36:39;101373.94;;;33.13
53667;BMP280;39568;51.026;5.468;2023-04-30T10:39:10;101379.47;;;32.94
53667;BMP280;39568;51.026;5.468;2023-04-30T10:41:37;101366.06;;;33.47
53667;BMP280;39568;51.026;5.468;2023-04-30T10:44:06;101367.88;;;32.01
53667;BMP280;39568;51.026;5.468;2023-04-30T10:46:34;101371.59;;;31.22
53667;BMP280;39568;51.026;5.468;2023-04-30T10:49:01;101366.44;;;32.00
53667;BMP280;39568;51.026;5.468;2023-04-30T10:51:44;101361.88;;;32.07
53667;BMP280;39568;51.026;5.468;2023-04-30T10:54:15;101364.28;;;32.34
53667;BMP280;39568;51.026;5.468;2023-04-30T10:56:44;101355.28;;;33.12
53667;BMP280;39568;51.026;5.468;2023-04-30T10:59:11;101349.13;;;33.35
53667;BMP280;39568;51.026;5.468;2023-04-30T11:01:55;101338.06;;;33.56
53667;BMP280;39568;51.026;5.468;2023-04-30T11:04:24;101337.72;;;33.68
53667;BMP280;39568;51.026;5.468;2023-04-30T11:07:07;101340.44;;;33.66
53667;BMP280;39568;51.026;5.468;2023-04-30T11:09:41;101336.53;;;34.22
53667;BMP280;39568;51.026;5.468;2023-04-30T11:12:13;101337.84;;;34.45
53667;BMP280;39568;51.026;5.468;2023-04-30T11:14:41;101334.88;;;34.90
53667;BMP280;39568;51.026;5.468;2023-04-30T11:17:09;101335.31;;;34.27
53667;BMP280;39568;51.026;5.468;2023-04-30T11:19:45;101331.53;;;32.05
53667;BMP280;39568;51.026;5.468;2023-04-30T11:22:21;101332.78;;;32.78
53667;BMP280;39568;51.026;5.468;2023-04-30T11:25:02;101332.09;;;34.11
53667;BMP280;39568;51.026;5.468;2023-04-30T11:27:31;101316.44;;;35.00
53667;BMP280;39568;51.026;5.468;2023-04-30T11:29:58;101324.28;;;33.35
53667;BMP280;39568;51.026;5.468;2023-04-30T11:32:30;101316.19;;;32.57
53667;BMP280;39568;51.026;5.468;2023-04-30T11:34:57;101305.25;;;29.90
53667;BMP280;39568;51.026;5.468;2023-04-30T11:37:29;101304.31;;;31.08
53667;BMP280;39568;51.026;5.468;2023-04-30T11:40:00;101306.28;;;32.30
53667;BMP280;39568;51.026;5.468;2023-04-30T11:42:28;101294.19;;;31.30
53667;BMP280;39568;51.026;5.468;2023-04-30T11:45:05;101306.66;;;32.81
53667;BMP280;39568;51.026;5.468;2023-04-30T11:47:40;101301.13;;;33.44
53667;BMP280;39568;51.026;5.468;2023-04-30T11:50:07;101289.28;;;34.38
53667;BMP280;39568;51.026;5.468;2023-04-30T11:52:35;101290.66;;;35.21
53667;BMP280;39568;51.026;5.468;2023-04-30T11:55:06;101289.69;;;35.09
53667;BMP280;39568;51.026;5.468;2023-04-30T11:57:38;101289.28;;;33.86
53667;BMP280;39568;51.026;5.468;2023-04-30T12:00:16;101287.66;;;33.32
53667;BMP280;39568;51.026;5.468;2023-04-30T12:02:46;101288.91;;;34.49
53667;BMP280;39568;51.026;5.468;2023-04-30T12:05:14;101288.41;;;34.05
53667;BMP280;39568;51.026;5.468;2023-04-30T12:07:45;101287.72;;;34.05
53667;BMP280;39568;51.026;5.468;2023-04-30T12:10:14;101284.56;;;32.79
53667;BMP280;39568;51.026;5.468;2023-04-30T12:12:42;101271.72;;;34.80
53667;BMP280;39568;51.026;5.468;2023-04-30T12:15:13;101276.75;;;35.17
53667;BMP280;39568;51.026;5.468;2023-04-30T12:17:41;101277.94;;;34.81
53667;BMP280;39568;51.026;5.468;2023-04-30T12:20:09;101267.84;;;34.36
53667;BMP280;39568;51.026;5.468;2023-04-30T12:22:37;101263.31;;;35.06
53667;BMP280;39568;51.026;5.468;2023-04-30T12:25:11;101269.28;;;34.94
53667;BMP280;39568;51.026;5.468;2023-04-30T12:27:44;101250.28;;;35.10
53667;BMP280;39568;51.026;5.468;2023-04-30T12:30:11;101249.59;;;34.80
53667;BMP280;39568;51.026;5.468;2023-04-30T12:32:43;101257.94;;;34.27
53667;BMP280;39568;51.026;5.468;2023-04-30T12:35:14;101254.31;;;33.03
53667;BMP280;39568;51.026;5.468;2023-04-30T12:37:42;101255.66;;;31.82
53667;BMP280;39568;51.026;5.468;2023-04-30T12:40:11;101258.03;;;31.02
53667;BMP280;39568;51.026;5.468;2023-04-30T12:42:37;101254.22;;;32.99
53667;BMP280;39568;51.026;5.468;2023-04-30T12:45:08;101248.66;;;34.99
53667;BMP280;39568;51.026;5.468;2023-04-30T12:47:37;101236.94;;;34.71
53667;BMP280;39568;51.026;5.468;2023-04-30T12:50:06;101235.75;;;35.77
53667;BMP280;39568;51.026;5.468;2023-04-30T12:52:33;101242.41;;;35.30
53667;BMP280;39568;51.026;5.468;2023-04-30T12:55:13;101250.22;;;36.11
53667;BMP280;39568;51.026;5.468;2023-04-30T12:57:41;101237.69;;;36.08
53667;BMP280;39568;51.026;5.468;2023-04-30T13:00:10;101237.09;;;36.53
53667;BMP280;39568;51.026;5.468;2023-04-30T13:02:37;101243.97;;;36.96
53667;BMP280;39568;51.026;5.468;2023-04-30T13:05:05;101236.53;;;36.63
53667;BMP280;39568;51.026;5.468;2023-04-30T13:07:36;101228.91;;;37.11
53667;BMP280;39568;51.026;5.468;2023-04-30T13:10:04;101219.28;;;37.20
53667;BMP280;39568;51.026;5.468;2023-04-30T13:12:31;101216.91;;;35.69
53667;BMP280;39568;51.026;5.468;2023-04-30T13:14:58;101212.41;;;35.88
53667;BMP280;39568;51.026;5.468;2023-04-30T13:17:29;101213.72;;;37.20
53667;BMP280;39568;51.026;5.468;2023-04-30T13:19:59;101206.78;;;37.84
53667;BMP280;39568;51.026;5.468;2023-04-30T13:22:28;101214.97;;;38.50
53667;BMP280;39568;51.026;5.468;2023-04-30T13:24:55;101212.16;;;38.52
53667;BMP280;39568;51.026;5.468;2023-04-30T13:27:21;101202.50;;;38.61
53667;BMP280;39568;51.026;5.468;2023-04-30T13:29:48;101202.84;;;35.57
53667;BMP280;39568;51.026;5.468;2023-04-30T13:32:16;101198.44;;;35.44
53667;BMP280;39568;51.026;5.468;2023-04-30T13:34:45;101208.19;;;36.23
53667;BMP280;39568;51.026;5.468;2023-04-30T13:37:12;101204.72;;;36.68
53667;BMP280;39568;51.026;5.468;2023-04-30T13:39:42;101202.59;;;37.79
53667;BMP280;39568;51.026;5.468;2023-04-30T13:42:13;101195.34;;;35.28
53667;BMP280;39568;51.026;5.468;2023-04-30T13:44:40;101195.72;;;34.24
53667;BMP280;39568;51.026;5.468;2023-04-30T13:47:06;101190.13;;;35.44
53667;BMP280;39568;51.026;5.468;2023-04-30T13:49:33;101184.78;;;35.92
53667;BMP280;39568;51.026;5.468;2023-04-30T13:52:02;101183.06;;;37.08
53667;BMP280;39568;51.026;5.468;2023-04-30T13:54:28;101183.47;;;37.44
53667;BMP280;39568;51.026;5.468;2023-04-30T13:56:56;101181.28;;;38.04
53667;BMP280;39568;51.026;5.468;2023-04-30T13:59:24;101183.09;;;37.75
53667;BMP280;39568;51.026;5.468;2023-04-30T14:01:50;101168.81;;;38.11
53667;BMP280;39568;51.026;5.468;2023-04-30T14:04:18;101169.97;;;39.00
53667;BMP280;39568;51.026;5.468;2023-04-30T14:06:46;101170.13;;;36.71
53667;BMP280;39568;51.026;5.468;2023-04-30T14:09:14;101164.22;;;36.47
53667;BMP280;39568;51.026;5.468;2023-04-30T14:11:42;101167.91;;;34.75
53667;BMP280;39568;51.026;5.468;2023-04-30T14:14:09;101176.34;;;34.52